createdAt,value
2023-05-10T00:02:07.014Z,99709.11
2023-05-10T00:04:33.946Z,99709.85
2023-05-10T00:07:01.000Z,99705.00
2023-05-10T00:09:28.118Z,99707.86
2023-05-10T00:11:54.965Z,99709.39
2023-05-10T00:14:21.904Z,99702.70
2023-05-10T00:16:48.862Z,99704.30
2023-05-10T00:19:16.159Z,99703.22
2023-05-10T00:21:43.133Z,99702.50
2023-05-10T00:24:10.048Z,99706.48
2023-05-10T00:26:36.954Z,99705.50
2023-05-10T00:29:03.830Z,99701.40
2023-05-10T00:31:30.729Z,99701.54
2023-05-10T00:33:58.004Z,99700.77
2023-05-10T00:36:24.860Z,99701.01
2023-05-10T00:38:51.798Z,99702.05
2023-05-10T00:41:18.880Z,99702.11
2023-05-10T00:43:46.279Z,99699.43
2023-05-10T00:46:13.311Z,99700.19
2023-05-10T00:48:40.240Z,99699.27
2023-05-10T00:51:07.606Z,99697.73
2023-05-10T00:53:34.520Z,99696.92
2023-05-10T00:56:01.486Z,99692.89
2023-05-10T00:58:29.447Z,99694.70
2023-05-10T01:00:58.318Z,99693.31
2023-05-10T01:03:26.356Z,99696.53
2023-05-10T01:05:53.276Z,99697.91
2023-05-10T01:08:20.180Z,99701.34
2023-05-10T01:10:47.564Z,99703.60
2023-05-10T01:13:14.646Z,99700.56
2023-05-10T01:15:41.857Z,99703.88
2023-05-10T01:18:09.322Z,99700.36
2023-05-10T01:20:39.397Z,99700.11
2023-05-10T01:23:12.932Z,99700.89
2023-05-10T01:26:08.097Z,99701.40
2023-05-10T01:28:53.201Z,99696.29
2023-05-10T01:31:29.180Z,99695.38
2023-05-10T01:34:14.036Z,99694.98
2023-05-10T01:37:00.348Z,99698.06
2023-05-10T01:39:33.193Z,99695.55
2023-05-10T01:42:00.014Z,99690.60
2023-05-10T01:44:45.266Z,99687.45
2023-05-10T01:47:16.021Z,99681.86
2023-05-10T01:49:51.397Z,99684.67
2023-05-10T01:52:20.627Z,99684.52
2023-05-10T01:54:55.067Z,99682.46
2023-05-10T01:57:21.961Z,99683.02
2023-05-10T01:59:50.954Z,99679.71
2023-05-10T02:02:18.586Z,99680.98
2023-05-10T02:04:45.552Z,99682.55
2023-05-10T02:07:12.668Z,99679.27
2023-05-10T02:09:39.630Z,99680.80
2023-05-10T02:12:07.334Z,99678.95
2023-05-10T02:14:36.609Z,99679.77
2023-05-10T02:17:05.250Z,99678.15
2023-05-10T02:19:32.699Z,99678.27
2023-05-10T02:22:00.144Z,99677.42
2023-05-10T02:24:27.005Z,99678.96
2023-05-10T02:26:55.134Z,99680.41
2023-05-10T02:29:22.007Z,99681.10
2023-05-10T02:31:48.905Z,99682.80
2023-05-10T02:34:15.933Z,99685.42
2023-05-10T02:36:42.801Z,99680.91
2023-05-10T02:39:14.659Z,99679.50
2023-05-10T02:41:42.513Z,99682.73
2023-05-10T02:44:10.184Z,99681.96
2023-05-10T02:46:38.446Z,99681.16
2023-05-10T02:49:05.392Z,99677.98
2023-05-10T02:51:33.377Z,99679.52
2023-05-10T02:54:03.014Z,99677.48
2023-05-10T02:56:31.567Z,99680.63
2023-05-10T02:58:58.561Z,99678.02
2023-05-10T03:01:25.506Z,99677.83
2023-05-10T03:03:53.513Z,99679.55
2023-05-10T03:06:20.499Z,99678.98
2023-05-10T03:08:47.363Z,99683.98
2023-05-10T03:11:38.429Z,99684.00
2023-05-10T03:14:11.463Z,99682.55
2023-05-10T03:16:48.416Z,99684.36
2023-05-10T03:19:31.676Z,99680.99
2023-05-10T03:22:00.598Z,99680.74
2023-05-10T03:24:29.521Z,99680.30
2023-05-10T03:26:58.025Z,99680.68
2023-05-10T03:29:24.929Z,99683.15
2023-05-10T03:31:51.977Z,99680.31
2023-05-10T03:34:24.873Z,99681.15
2023-05-10T03:36:52.217Z,99678.50
2023-05-10T03:39:19.155Z,99682.80
2023-05-10T03:41:49.521Z,99680.20
2023-05-10T03:44:16.406Z,99682.40
2023-05-10T03:46:44.642Z,99681.56
2023-05-10T03:49:11.754Z,99684.14
2023-05-10T03:51:38.741Z,99686.05
2023-05-10T03:54:05.710Z,99686.13
2023-05-10T03:56:32.646Z,99691.56
2023-05-10T03:59:00.281Z,99691.30
2023-05-10T04:01:27.163Z,99697.14
2023-05-10T04:03:54.356Z,99696.41
2023-05-10T04:06:21.487Z,99694.78
2023-05-10T04:08:48.364Z,99696.69
2023-05-10T04:11:15.260Z,99694.85
2023-05-10T04:13:42.390Z,99694.07
2023-05-10T04:16:09.316Z,99698.89
2023-05-10T04:18:36.414Z,99701.32
2023-05-10T04:21:03.814Z,99703.34
2023-05-10T04:23:30.685Z,99704.25
2023-05-10T04:26:02.110Z,99703.29
2023-05-10T04:28:29.101Z,99705.71
2023-05-10T04:31:03.612Z,99705.72
2023-05-10T04:33:30.704Z,99702.23
2023-05-10T04:35:58.720Z,99702.58
2023-05-10T04:38:25.843Z,99700.99
2023-05-10T04:40:52.732Z,99704.85
2023-05-10T04:43:19.837Z,99702.11
2023-05-10T04:45:46.929Z,99699.38
2023-05-10T04:48:14.197Z,99697.77
2023-05-10T04:50:41.270Z,99696.75
2023-05-10T04:53:08.246Z,99691.18
2023-05-10T04:57:57.789Z,99691.89
2023-05-10T05:00:25.411Z,99693.68
2023-05-10T05:02:52.464Z,99692.55
2023-05-10T05:05:19.253Z,99695.47
2023-05-10T05:07:46.242Z,99702.31
2023-05-10T05:10:13.052Z,99702.91
2023-05-10T05:12:39.866Z,99704.64
2023-05-10T05:15:09.774Z,99701.55
2023-05-10T05:17:37.398Z,99699.79
2023-05-10T05:20:05.049Z,99703.41
2023-05-10T05:22:32.515Z,99698.66
2023-05-10T05:24:59.321Z,99694.67
2023-05-10T05:27:28.335Z,99697.48
2023-05-10T05:29:58.131Z,99700.00
2023-05-10T05:32:25.983Z,99697.34
2023-05-10T05:34:52.694Z,99700.10
2023-05-10T05:37:20.521Z,99701.28
2023-05-10T05:39:47.417Z,99698.09
2023-05-10T05:42:14.420Z,99700.67
2023-05-10T05:44:41.149Z,99699.80
2023-05-10T05:47:07.849Z,99700.56
2023-05-10T05:49:34.478Z,99697.14
2023-05-10T05:52:02.337Z,99698.30
2023-05-10T05:54:29.925Z,99696.17
2023-05-10T05:57:01.423Z,99701.60
2023-05-10T05:59:28.466Z,99698.06
2023-05-10T06:01:55.277Z,99699.45
2023-05-10T06:04:22.091Z,99695.10
2023-05-10T06:06:49.140Z,99700.10
2023-05-10T06:09:16.329Z,99699.13
2023-05-10T06:11:43.274Z,99700.39
2023-05-10T06:14:10.026Z,99702.52
2023-05-10T06:16:36.788Z,99700.69
2023-05-10T06:19:03.611Z,99699.33
2023-05-10T06:21:30.744Z,99698.22
2023-05-10T06:23:57.399Z,99699.29
2023-05-10T06:26:24.248Z,99694.33
2023-05-10T06:28:50.893Z,99697.21
2023-05-10T06:31:18.237Z,99700.96
2023-05-10T06:33:45.180Z,99700.13
2023-05-10T06:36:11.966Z,99699.36
2023-05-10T06:38:38.628Z,99697.79
2023-05-10T06:41:05.917Z,99700.63
2023-05-10T06:43:33.253Z,99706.11
2023-05-10T06:46:00.303Z,99701.77
2023-05-10T06:48:28.627Z,99702.38
2023-05-10T06:50:55.359Z,99701.57
2023-05-10T06:53:22.479Z,99699.34
2023-05-10T06:55:49.891Z,99699.18
2023-05-10T06:58:16.991Z,99693.89
2023-05-10T07:00:44.271Z,99702.56
2023-05-10T07:03:12.472Z,99697.95
2023-05-10T07:05:39.525Z,99700.98
2023-05-10T07:08:06.578Z,99702.34
2023-05-10T07:10:33.954Z,99701.49
2023-05-10T07:13:01.783Z,99708.59
2023-05-10T07:15:29.289Z,99704.04
2023-05-10T07:17:56.087Z,99699.61
2023-05-10T07:20:22.923Z,99684.34
2023-05-10T07:22:49.818Z,99694.73
2023-05-10T07:25:16.653Z,99688.52
2023-05-10T07:27:43.716Z,99702.45
2023-05-10T07:30:11.077Z,99696.46
2023-05-10T07:32:38.109Z,99696.36
2023-05-10T07:35:05.977Z,99695.48
2023-05-10T07:37:33.003Z,99692.93
2023-05-10T07:39:59.924Z,99693.18
2023-05-10T07:42:27.297Z,99703.43
2023-05-10T07:44:53.936Z,99701.68
2023-05-10T07:47:21.021Z,99697.83
2023-05-10T07:49:48.447Z,99698.27
2023-05-10T07:52:15.815Z,99695.90
2023-05-10T07:54:42.790Z,99695.11
2023-05-10T07:57:09.606Z,99694.62
2023-05-10T07:59:36.852Z,99686.25
2023-05-10T08:02:03.771Z,99686.07
2023-05-10T08:04:30.589Z,99685.08
2023-05-10T08:06:57.225Z,99684.77
2023-05-10T08:09:24.364Z,99688.33
2023-05-10T08:11:51.139Z,99680.56
2023-05-10T08:14:17.905Z,99681.64
2023-05-10T08:16:44.534Z,99687.33
2023-05-10T08:19:11.762Z,99685.99
2023-05-10T08:21:38.715Z,99676.70
2023-05-10T08:24:05.902Z,99678.75
2023-05-10T08:26:33.288Z,99668.48
2023-05-10T08:29:00.201Z,99667.87
2023-05-10T08:31:26.902Z,99670.83
2023-05-10T08:33:53.727Z,99680.33
2023-05-10T08:36:22.236Z,99676.81
2023-05-10T08:38:52.125Z,99676.52
2023-05-10T08:41:21.765Z,99673.55
2023-05-10T08:43:48.468Z,99678.02
2023-05-10T08:46:18.211Z,99670.27
2023-05-10T08:48:45.869Z,99683.29
2023-05-10T08:51:14.467Z,99676.85
2023-05-10T08:53:41.251Z,99679.36
2023-05-10T08:56:07.922Z,99675.00
2023-05-10T08:58:35.824Z,99675.50
2023-05-10T09:01:02.677Z,99679.16
2023-05-10T09:03:30.563Z,99683.73
2023-05-10T09:05:57.672Z,99682.34
2023-05-10T09:08:27.765Z,99686.48
2023-05-10T09:10:57.470Z,99682.00
2023-05-10T09:13:24.756Z,99681.18
2023-05-10T09:15:51.456Z,99678.88
2023-05-10T09:18:18.765Z,99680.70
2023-05-10T09:20:45.882Z,99678.40
2023-05-10T09:23:12.963Z,99673.72
2023-05-10T09:25:40.598Z,99678.79
2023-05-10T09:28:09.009Z,99679.14
2023-05-10T09:30:36.857Z,99679.31
2023-05-10T09:33:04.064Z,99667.77
2023-05-10T09:35:32.292Z,99666.02
2023-05-10T09:38:04.290Z,99670.12
2023-05-10T09:40:31.693Z,99673.43
2023-05-10T09:43:07.323Z,99672.91
2023-05-10T09:45:37.735Z,99674.12
2023-05-10T09:48:05.773Z,99665.98
2023-05-10T09:50:34.437Z,99662.64
2023-05-10T09:53:03.500Z,99664.60
2023-05-10T09:55:45.640Z,99669.48
2023-05-10T09:58:13.515Z,99669.45
2023-05-10T10:00:41.335Z,99675.32
2023-05-10T10:03:17.447Z,99663.58
2023-05-10T10:05:44.517Z,99666.18
2023-05-10T10:08:12.535Z,99656.50
2023-05-10T10:10:40.845Z,99661.91
2023-05-10T10:13:07.636Z,99657.86
2023-05-10T10:15:34.989Z,99666.06
2023-05-10T10:18:01.972Z,99663.84
2023-05-10T10:20:28.956Z,99657.09
2023-05-10T10:22:55.649Z,99654.89
2023-05-10T10:25:22.837Z,99657.21
2023-05-10T10:27:52.250Z,99653.88
2023-05-10T10:30:43.999Z,99659.52
2023-05-10T10:33:33.180Z,99659.88
2023-05-10T10:36:01.122Z,99658.34
2023-05-10T10:38:46.788Z,99658.05
2023-05-10T10:41:32.008Z,99655.66
2023-05-10T10:44:27.000Z,99649.30
2023-05-10T10:47:14.897Z,99650.24
2023-05-10T10:49:41.896Z,99651.70
2023-05-10T10:52:30.288Z,99643.30
2023-05-10T10:55:17.424Z,99643.27
2023-05-10T10:57:48.023Z,99646.21
2023-05-10T11:00:28.053Z,99648.51
2023-05-10T11:03:15.116Z,99644.94
2023-05-10T11:05:48.759Z,99639.83
2023-05-10T11:08:30.747Z,99642.35
2023-05-10T11:11:00.615Z,99646.99
2023-05-10T11:13:32.377Z,99649.21
2023-05-10T11:15:59.622Z,99646.08
2023-05-10T11:18:27.586Z,99643.63
2023-05-10T11:21:03.793Z,99647.23
2023-05-10T11:23:31.997Z,99645.35
2023-05-10T11:25:59.843Z,99642.25
2023-05-10T11:28:26.692Z,99639.48
2023-05-10T11:30:53.342Z,99640.91
2023-05-10T11:33:20.187Z,99639.88
2023-05-10T11:35:46.940Z,99633.88
2023-05-10T11:38:13.781Z,99627.02
2023-05-10T11:40:40.892Z,99626.94
2023-05-10T11:43:10.634Z,99624.86
2023-05-10T11:45:37.337Z,99624.85
2023-05-10T11:48:04.754Z,99621.88
2023-05-10T11:50:31.497Z,99622.36
2023-05-10T11:52:59.203Z,99622.68
2023-05-10T11:55:25.978Z,99620.97
2023-05-10T11:57:53.682Z,99619.84
2023-05-10T12:00:20.803Z,99626.27
2023-05-10T12:02:48.598Z,99626.89
2023-05-10T12:05:15.622Z,99626.87
2023-05-10T12:07:42.695Z,99624.21
2023-05-10T12:10:15.167Z,99621.55
2023-05-10T12:12:49.974Z,99624.69
2023-05-10T12:15:22.853Z,99623.72
2023-05-10T12:17:49.980Z,99618.80
2023-05-10T12:20:20.563Z,99617.81
2023-05-10T12:22:49.740Z,99616.05
2023-05-10T12:25:17.198Z,99613.59
2023-05-10T12:27:55.428Z,99610.77
2023-05-10T12:30:26.817Z,99610.54
2023-05-10T12:32:53.483Z,99609.17
2023-05-10T12:35:22.375Z,99606.30
2023-05-10T12:37:48.970Z,99606.54
2023-05-10T12:40:19.110Z,99601.75
2023-05-10T12:42:46.784Z,99596.55
2023-05-10T12:45:13.382Z,99601.60
2023-05-10T12:47:43.087Z,99605.87
2023-05-10T12:50:11.328Z,99600.63
2023-05-10T12:52:38.125Z,99605.13
2023-05-10T12:55:06.986Z,99600.05
2023-05-10T12:57:33.868Z,99595.16
2023-05-10T13:00:00.461Z,99589.73
2023-05-10T13:02:27.313Z,99588.31
2023-05-10T13:04:54.039Z,99591.05
2023-05-10T13:07:20.828Z,99594.27
2023-05-10T13:09:47.477Z,99591.04
2023-05-10T13:12:14.333Z,99589.28
2023-05-10T13:14:42.049Z,99592.52
2023-05-10T13:17:08.836Z,99592.06
2023-05-10T13:19:35.754Z,99590.46
2023-05-10T13:22:03.105Z,99588.23
2023-05-10T13:24:30.780Z,99586.98
2023-05-10T13:26:58.473Z,99583.79
2023-05-10T13:29:25.213Z,99579.70
2023-05-10T13:31:51.917Z,99584.66
2023-05-10T13:34:20.750Z,99589.14
2023-05-10T13:36:48.158Z,99587.04
2023-05-10T13:39:15.200Z,99577.31
2023-05-10T13:41:42.053Z,99577.77
2023-05-10T13:44:08.719Z,99577.73
2023-05-10T13:46:35.403Z,99587.29
2023-05-10T13:49:02.418Z,99586.45
2023-05-10T13:51:29.317Z,99581.06
2023-05-10T13:53:55.909Z,99587.47
2023-05-10T13:56:22.548Z,99581.75
2023-05-10T13:58:49.187Z,99582.81
2023-05-10T14:01:15.915Z,99563.23
2023-05-10T14:03:42.727Z,99575.95
2023-05-10T14:06:09.558Z,99574.24
2023-05-10T14:08:37.018Z,99580.02
2023-05-10T14:11:03.616Z,99580.73
2023-05-10T14:13:30.304Z,99579.48
2023-05-10T14:15:57.098Z,99581.00
2023-05-10T14:18:24.116Z,99582.05
2023-05-10T14:20:50.798Z,99585.84
2023-05-10T14:23:20.634Z,99583.45
2023-05-10T14:25:47.192Z,99576.66
2023-05-10T14:28:14.801Z,99577.63
2023-05-10T14:30:41.501Z,99583.86
2023-05-10T14:33:08.165Z,99578.45
2023-05-10T14:35:34.833Z,99573.73
2023-05-10T14:38:03.940Z,99576.64
2023-05-10T14:40:30.690Z,99575.67
2023-05-10T14:42:57.262Z,99576.48
2023-05-10T14:45:23.968Z,99571.48
2023-05-10T14:47:50.931Z,99572.05
2023-05-10T14:50:34.687Z,99574.00
2023-05-10T14:53:08.144Z,99571.79
2023-05-10T14:55:35.537Z,99566.38
2023-05-10T14:58:03.142Z,99564.63
2023-05-10T15:00:31.084Z,99564.57
2023-05-10T15:02:58.615Z,99566.00
2023-05-10T15:05:25.968Z,99562.91
2023-05-10T15:07:53.119Z,99566.90
2023-05-10T15:10:19.969Z,99557.95
2023-05-10T15:12:47.180Z,99559.50
2023-05-10T15:15:13.992Z,99560.12
2023-05-10T15:17:40.875Z,99562.69
2023-05-10T15:20:08.423Z,99562.15
2023-05-10T15:22:35.708Z,99561.75
2023-05-10T15:25:03.445Z,99562.42
2023-05-10T15:27:30.780Z,99563.70
2023-05-10T15:29:57.462Z,99564.09
2023-05-10T15:32:24.048Z,99560.91
2023-05-10T15:34:50.802Z,99563.25
2023-05-10T15:37:17.376Z,99566.48
2023-05-10T15:39:44.407Z,99563.11
2023-05-10T15:42:11.078Z,99561.98
2023-05-10T15:44:38.810Z,99559.53
2023-05-10T15:47:06.301Z,99560.27
2023-05-10T15:49:34.181Z,99557.75
2023-05-10T15:52:00.949Z,99558.19
2023-05-10T15:54:27.525Z,99560.09
2023-05-10T15:56:54.484Z,99558.83
2023-05-10T15:59:21.176Z,99559.15
2023-05-10T16:01:48.017Z,99554.89
2023-05-10T16:04:14.652Z,99556.73
2023-05-10T16:06:41.454Z,99556.70
2023-05-10T16:09:08.142Z,99556.45
2023-05-10T16:11:34.802Z,99554.11
2023-05-10T16:14:01.636Z,99558.68
2023-05-10T16:16:28.442Z,99558.46
2023-05-10T16:18:55.186Z,99558.78
2023-05-10T16:21:21.801Z,99556.98
2023-05-10T16:23:48.962Z,99561.36
2023-05-10T16:26:15.586Z,99559.48
2023-05-10T16:28:42.254Z,99561.73
2023-05-10T16:31:09.001Z,99564.20
2023-05-10T16:33:36.625Z,99562.23
2023-05-10T16:36:04.402Z,99561.80
2023-05-10T16:38:31.104Z,99567.23
2023-05-10T16:40:57.957Z,99561.65
2023-05-10T16:43:26.239Z,99561.55
2023-05-10T16:45:53.194Z,99562.31
2023-05-10T16:48:19.834Z,99562.08
2023-05-10T16:50:47.333Z,99561.10
2023-05-10T16:53:14.008Z,99565.34
2023-05-10T16:55:40.898Z,99567.68
2023-05-10T16:58:07.527Z,99573.87
2023-05-10T17:00:34.433Z,99572.48
2023-05-10T17:03:01.381Z,99572.41
2023-05-10T17:05:28.817Z,99576.06
2023-05-10T17:07:55.572Z,99574.70
2023-05-10T17:10:22.441Z,99580.47
2023-05-10T17:15:17.640Z,99583.75
2023-05-10T17:17:45.113Z,99587.94
2023-05-10T17:20:12.139Z,99587.61
2023-05-10T17:22:38.916Z,99589.44
2023-05-10T17:25:06.634Z,99591.55
2023-05-10T17:27:33.404Z,99592.31
2023-05-10T17:30:00.196Z,99595.45
2023-05-10T17:32:27.058Z,99598.25
2023-05-10T17:34:54.039Z,99600.67
2023-05-10T17:37:23.006Z,99601.35
2023-05-10T17:39:49.840Z,99603.33
2023-05-10T17:42:19.124Z,99602.70
2023-05-10T17:44:45.944Z,99602.67
2023-05-10T17:47:12.830Z,99605.68
2023-05-10T17:49:40.093Z,99606.91
2023-05-10T17:52:07.554Z,99610.88
2023-05-10T17:54:34.530Z,99615.65
2023-05-10T17:57:03.921Z,99614.58
2023-05-10T17:59:30.831Z,99615.84
2023-05-10T18:01:58.722Z,99619.97
2023-05-10T18:04:26.103Z,99621.38
2023-05-10T18:07:01.275Z,99625.92
2023-05-10T18:09:29.565Z,99627.20
2023-05-10T18:11:56.523Z,99625.98
2023-05-10T18:14:36.475Z,99627.74
2023-05-10T18:17:09.543Z,99631.43
2023-05-10T18:19:36.698Z,99631.30
2023-05-10T18:22:03.625Z,99633.10
2023-05-10T18:24:38.809Z,99635.89
2023-05-10T18:27:07.206Z,99634.55
2023-05-10T18:29:34.288Z,99635.34
2023-05-10T18:32:01.100Z,99635.33
2023-05-10T18:34:27.915Z,99637.27
2023-05-10T18:36:54.813Z,99638.52
2023-05-10T18:39:21.751Z,99636.45
2023-05-10T18:41:49.281Z,99635.52
2023-05-10T18:44:16.127Z,99639.20
2023-05-10T18:46:43.509Z,99643.14
2023-05-10T18:49:10.556Z,99641.73
2023-05-10T18:51:37.373Z,99642.50
2023-05-10T18:54:04.559Z,99644.50
2023-05-10T18:56:31.503Z,99644.27
2023-05-10T18:58:59.392Z,99640.48
2023-05-10T19:01:26.430Z,99640.34
2023-05-10T19:03:53.363Z,99639.74
2023-05-10T19:06:21.311Z,99640.59
2023-05-10T19:08:50.417Z,99638.81
2023-05-10T19:11:17.536Z,99645.91
2023-05-10T19:13:45.459Z,99646.07
2023-05-10T19:16:16.000Z,99649.79
2023-05-10T19:18:46.858Z,99649.44
2023-05-10T19:21:13.916Z,99646.56
2023-05-10T19:23:42.123Z,99646.91
2023-05-10T19:26:11.095Z,99644.39
2023-05-10T19:28:38.256Z,99646.23
2023-05-10T19:31:05.090Z,99649.09
2023-05-10T19:33:33.435Z,99650.75
2023-05-10T19:36:00.339Z,99653.33
2023-05-10T19:38:27.754Z,99651.50
2023-05-10T19:40:58.410Z,99653.70
2023-05-10T19:43:26.138Z,99650.30
2023-05-10T19:45:52.904Z,99652.41
2023-05-10T19:48:19.693Z,99649.90
2023-05-10T19:50:46.532Z,99648.45
2023-05-10T19:53:13.404Z,99651.93
2023-05-10T19:55:40.243Z,99653.88
2023-05-10T19:58:07.112Z,99655.70
2023-05-10T20:00:33.973Z,99657.58
2023-05-10T20:03:01.336Z,99655.84
2023-05-10T20:05:28.881Z,99655.02
2023-05-10T20:07:55.784Z,99653.52
2023-05-10T20:10:23.481Z,99651.77
2023-05-10T20:12:53.015Z,99651.34
2023-05-10T20:15:21.524Z,99652.60
2023-05-10T20:17:49.033Z,99658.19
2023-05-10T20:20:16.873Z,99654.27
2023-05-10T20:22:44.334Z,99655.54
2023-05-10T20:25:11.308Z,99653.56
2023-05-10T20:27:38.147Z,99653.02
2023-05-10T20:30:05.853Z,99652.35
2023-05-10T20:32:32.838Z,99652.14
2023-05-10T20:34:59.695Z,99654.90
2023-05-10T20:37:28.091Z,99655.36
2023-05-10T20:39:55.034Z,99655.11
2023-05-10T20:42:22.094Z,99652.01
2023-05-10T20:44:49.848Z,99654.98
2023-05-10T20:47:16.763Z,99653.73
2023-05-10T20:49:43.968Z,99651.18
2023-05-10T20:52:10.782Z,99649.13
2023-05-10T20:54:37.621Z,99648.56
2023-05-10T20:57:04.526Z,99649.14
2023-05-10T20:59:31.354Z,99648.23
2023-05-10T21:01:58.318Z,99647.46
2023-05-10T21:04:25.981Z,99648.16
2023-05-10T21:06:53.433Z,99649.85
2023-05-10T21:09:20.221Z,99649.36
2023-05-10T21:11:48.643Z,99652.05
2023-05-10T21:14:15.528Z,99651.96
2023-05-10T21:16:43.601Z,99650.58
2023-05-10T21:19:10.666Z,99650.98
2023-05-10T21:21:37.554Z,99648.02
2023-05-10T21:24:04.649Z,99646.49
2023-05-10T21:26:31.608Z,99644.75
2023-05-10T21:28:59.380Z,99646.34
2023-05-10T21:31:26.255Z,99646.29
2023-05-10T21:33:54.182Z,99646.66
2023-05-10T21:36:20.987Z,99646.70
2023-05-10T21:38:50.751Z,99648.56
2023-05-10T21:41:17.755Z,99648.75
2023-05-10T21:43:44.579Z,99649.57
2023-05-10T21:46:13.542Z,99651.09
2023-05-10T21:48:40.535Z,99649.31
2023-05-10T21:51:08.376Z,99649.04
2023-05-10T21:53:36.574Z,99648.88
2023-05-10T21:56:03.421Z,99652.31
2023-05-10T21:58:30.261Z,99654.42
2023-05-10T22:00:57.153Z,99656.20
2023-05-10T22:03:24.240Z,99655.34
2023-05-10T22:05:51.338Z,99650.56
2023-05-10T22:08:18.115Z,99652.56
2023-05-10T22:10:44.882Z,99651.27
2023-05-10T22:13:11.658Z,99651.37
2023-05-10T22:15:38.435Z,99652.09
2023-05-10T22:18:05.627Z,99655.06
2023-05-10T22:20:32.666Z,99654.90
2023-05-10T22:22:59.550Z,99652.50
2023-05-10T22:25:26.392Z,99653.02
2023-05-10T22:27:53.251Z,99654.20
2023-05-10T22:30:20.267Z,99652.19
2023-05-10T22:32:47.521Z,99656.17
2023-05-10T22:35:14.312Z,99658.00
2023-05-10T22:37:41.715Z,99655.61
2023-05-10T22:40:09.536Z,99657.67
2023-05-10T22:42:36.293Z,99656.15
2023-05-10T22:45:03.112Z,99655.59
2023-05-10T22:47:29.938Z,99654.18
2023-05-10T22:49:58.289Z,99655.20
2023-05-10T22:52:25.271Z,99654.10
2023-05-10T22:54:52.087Z,99655.55
2023-05-10T22:57:18.937Z,99653.71
2023-05-10T22:59:48.203Z,99651.70
2023-05-10T23:02:15.456Z,99653.52
2023-05-10T23:04:42.294Z,99652.25
2023-05-10T23:07:09.200Z,99653.45
2023-05-10T23:09:36.023Z,99654.56
2023-05-10T23:12:03.223Z,99653.59
2023-05-10T23:14:30.258Z,99655.98
2023-05-10T23:16:57.113Z,99655.27
2023-05-10T23:19:24.854Z,99655.55
2023-05-10T23:21:51.616Z,99655.35
2023-05-10T23:24:18.491Z,99657.60
2023-05-10T23:26:46.575Z,99658.92
2023-05-10T23:29:13.471Z,99657.19
2023-05-10T23:31:45.722Z,99658.21
2023-05-10T23:34:12.862Z,99660.88
2023-05-10T23:36:39.651Z,99660.60
2023-05-10T23:39:07.012Z,99662.13
2023-05-10T23:41:34.387Z,99665.86
2023-05-10T23:44:02.488Z,99666.71
2023-05-10T23:46:29.284Z,99666.16
2023-05-10T23:48:56.139Z,99665.80
2023-05-10T23:51:22.995Z,99666.84
2023-05-10T23:53:49.838Z,99669.86
2023-05-10T23:56:16.727Z,99671.45
2023-05-10T23:58:44.222Z,99669.85
